Air Resources Laboratory banner image
Air Resources Laboratory web site National Oceanic and Atmospheric Administration (NOAA)

de metar


KDOV 212256Z AUTO 31015KT 10SM CLR 08/M02 A3013 RMK AO2 SLP206 T00831021 $=
KGED 212254Z AUTO 32005KT 10SM CLR 09/M01 A3015 RMK AO2 SLP209 T00941011=
KILG 212251Z 31009KT 10SM FEW050 07/M01 A3014 RMK AO2 SLP206 T00721011=